Time;durP1;ratioP1;P1;durP2;ratioP2;P2;SDS_P1;SDS_P2;PMS_P1;PMS_P2;Temp;Humidity;BMP_temperature;BMP_pressure;BME280_temperature;BME280_humidity;BME280_pressure;Samples;Min_cycle;Max_cycle;Signal;HPM_P1;HPM_P2
2021/01/27 00:00:58;;;;;;;5.20;2.47;;;;;;;1.16;65.64;98827.48;1694565;83;21267;-62
2021/01/27 00:03:26;;;;;;;5.83;2.10;;;;;;;1.14;65.51;98827.06;1693234;83;21910;-62
2021/01/27 00:05:53;;;;;;;2.97;1.97;;;;;;;1.11;65.11;98814.33;1691838;84;21188;-62
2021/01/27 00:08:21;;;;;;;2.70;1.63;;;;;;;1.06;65.16;98817.11;1690112;83;21208;-60
2021/01/27 00:10:49;;;;;;;3.13;2.00;;;;;;;1.04;65.15;98826.87;1690472;82;21485;-63
2021/01/27 00:13:18;;;;;;;2.50;1.70;;;;;;;1.01;65.05;98825.64;1691976;82;21531;-63
2021/01/27 00:15:46;;;;;;;4.00;1.87;;;;;;;1.02;65.08;98825.19;1694545;83;21179;-63
2021/01/27 00:18:16;;;;;;;3.00;1.70;;;;;;;1.02;64.99;98833.14;1690698;83;21195;-63
2021/01/27 00:20:43;;;;;;;5.30;2.17;;;;;;;1.01;65.03;98828.75;1693143;83;21655;-63
2021/01/27 00:23:10;;;;;;;4.10;1.90;;;;;;;1.01;65.03;98832.72;1693737;83;21195;-63
2021/01/27 00:25:38;;;;;;;3.70;1.90;;;;;;;0.99;65.13;98834.08;1696705;84;21291;-61
2021/01/27 00:28:06;;;;;;;7.50;2.97;;;;;;;1.01;65.24;98831.39;1691955;83;21180;-61
2021/01/27 00:30:40;;;;;;;5.50;2.50;;;;;;;1.03;65.38;98826.91;1707598;83;21666;-62
2021/01/27 00:33:09;;;;;;;4.10;2.42;;;;;;;1.05;65.49;98822.44;1711016;82;21208;-62
2021/01/27 00:35:42;;;;;;;3.80;2.47;;;;;;;1.05;65.57;98822.44;1708340;83;21665;-61
2021/01/27 00:38:21;;;;;;;3.97;2.37;;;;;;;1.05;65.72;98815.81;1705643;83;21171;-60
2021/01/27 00:40:50;;;;;;;3.37;1.90;;;;;;;1.07;65.59;98816.20;1708912;82;21164;-61
2021/01/27 00:43:18;;;;;;;5.33;2.07;;;;;;;1.07;65.45;98818.86;1706240;82;21156;-62
2021/01/27 00:45:45;;;;;;;5.00;3.03;;;;;;;1.07;65.46;98815.33;1711584;83;21646;-63
2021/01/27 00:48:13;;;;;;;3.97;1.60;;;;;;;1.06;65.30;98816.23;1703547;82;21210;-61
2021/01/27 00:50:40;;;;;;;3.60;2.27;;;;;;;1.04;65.19;98812.30;1704206;83;21199;-62
2021/01/27 00:53:08;;;;;;;2.87;1.43;;;;;;;1.05;65.16;98807.87;1668538;85;21489;-61
2021/01/27 00:55:37;;;;;;;5.47;2.90;;;;;;;1.02;65.29;98808.80;1668233;83;21625;-62
2021/01/27 00:58:04;;;;;;;5.80;2.30;;;;;;;1.01;65.33;98803.57;1707865;83;21790;-61
2021/01/27 01:00:38;;;;;;;5.83;2.43;;;;;;;1.01;65.32;98796.95;1702941;83;21218;-62
2021/01/27 01:03:08;;;;;;;4.50;2.63;;;;;;;0.99;65.47;98800.08;1678648;83;21227;-62
2021/01/27 01:05:39;;;;;;;4.20;2.43;;;;;;;0.95;65.44;98802.38;1701879;82;21227;-62
2021/01/27 01:08:06;;;;;;;4.00;2.70;;;;;;;0.91;65.51;98801.59;1706237;83;21155;-61
2021/01/27 01:10:37;;;;;;;3.70;2.47;;;;;;;0.87;65.57;98800.37;1709373;83;23329;-62
2021/01/27 01:13:06;;;;;;;4.27;2.10;;;;;;;0.85;65.68;98794.27;1706189;83;21147;-62
2021/01/27 01:15:33;;;;;;;4.83;2.70;;;;;;;0.79;65.67;98789.97;1704217;82;21175;-62
2021/01/27 01:18:01;;;;;;;4.60;2.73;;;;;;;0.77;65.75;98788.28;1708336;83;21418;-63
2021/01/27 01:20:28;;;;;;;4.83;2.73;;;;;;;0.74;65.84;98791.41;1706957;82;21451;-61
2021/01/27 01:22:57;;;;;;;8.30;3.23;;;;;;;0.72;65.85;98793.22;1707179;82;21213;-61
2021/01/27 01:25:27;;;;;;;4.07;3.07;;;;;;;0.72;65.89;98791.02;1707526;83;21040;-62
2021/01/27 01:27:54;;;;;;;5.73;3.03;;;;;;;0.73;65.97;98793.64;1708251;83;21143;-62
2021/01/27 01:30:28;;;;;;;5.53;3.30;;;;;;;0.73;66.06;98794.09;1698642;82;21124;-62
2021/01/27 01:32:59;;;;;;;5.67;3.57;;;;;;;0.73;65.98;98788.80;1689472;84;21096;-61
2021/01/27 01:35:27;;;;;;;6.33;3.50;;;;;;;0.71;65.97;98778.23;1690851;83;21191;-62
2021/01/27 01:37:54;;;;;;;5.40;3.07;;;;;;;0.71;65.97;98773.39;1688205;83;21199;-62
2021/01/27 01:40:25;;;;;;;6.53;3.67;;;;;;;0.71;66.04;98770.73;1685793;83;21132;-61
2021/01/27 01:43:10;;;;;;;4.20;2.60;;;;;;;0.70;66.00;98768.99;1661409;85;21147;-62
2021/01/27 01:45:43;;;;;;;5.83;2.50;;;;;;;0.69;66.14;98768.13;1658965;85;21112;-61
2021/01/27 01:48:40;;;;;;;6.93;3.53;;;;;;;0.68;66.14;98766.37;1655882;85;21457;-61
2021/01/27 01:51:35;;;;;;;4.93;2.60;;;;;;;0.69;66.16;98768.57;1652919;85;21444;-62
2021/01/27 01:54:16;;;;;;;4.60;2.87;;;;;;;0.69;66.20;98765.92;1625484;86;21451;-62
2021/01/27 01:56:49;;;;;;;8.10;3.40;;;;;;;0.69;66.24;98757.52;1660585;86;21135;-61
2021/01/27 01:59:17;;;;;;;6.27;3.53;;;;;;;0.67;66.22;98750.55;1657658;84;21665;-61
2021/01/27 02:01:46;;;;;;;7.47;3.57;;;;;;;0.68;66.24;98756.27;1652495;86;21223;-61
2021/01/27 02:04:14;;;;;;;8.43;3.80;;;;;;;0.65;66.35;98750.58;1663112;85;21147;-61
2021/01/27 02:06:41;;;;;;;5.83;3.90;;;;;;;0.65;66.30;98747.06;1657969;85;21144;-61
2021/01/27 02:09:08;;;;;;;7.07;3.03;;;;;;;0.65;66.34;98747.94;1697008;84;21175;-61
2021/01/27 02:11:50;;;;;;;6.87;3.73;;;;;;;0.64;66.38;98748.84;1696269;83;21611;-61
2021/01/27 02:15:00;;;;;;;5.43;2.83;;;;;;;0.64;66.48;98754.13;1694360;83;21381;-62
2021/01/27 02:18:07;;;;;;;7.37;3.90;;;;;;;0.62;66.52;98757.72;1686617;84;21520;-63
2021/01/27 02:21:23;;;;;;;4.17;2.70;;;;;;;0.61;66.61;98760.81;1690406;83;21243;-60
2021/01/27 02:24:31;;;;;;;5.63;2.90;;;;;;;0.60;66.76;98753.77;1695219;83;22027;-63
2021/01/27 02:27:22;;;;;;;5.47;3.30;;;;;;;0.56;66.83;98753.45;1690567;83;22492;-64
2021/01/27 02:30:40;;;;;;;7.30;3.80;;;;;;;0.57;66.92;98750.34;1692721;83;22342;-60
2021/01/27 02:33:42;;;;;;;5.27;3.70;;;;;;;0.55;67.07;98747.73;1689918;83;21219;-59
2021/01/27 02:36:32;;;;;;;5.53;3.23;;;;;;;0.52;67.12;98739.85;1690255;84;22684;-61
2021/01/27 02:39:22;;;;;;;6.83;3.07;;;;;;;0.51;67.24;98738.59;1690382;83;21448;-61
2021/01/27 02:42:20;;;;;;;5.80;3.90;;;;;;;0.50;67.28;98744.34;1686322;83;21235;-62
2021/01/27 02:45:14;;;;;;;8.77;5.00;;;;;;;0.49;67.37;98736.42;1690916;83;21258;-61
2021/01/27 02:47:59;;;;;;;7.73;4.03;;;;;;;0.48;67.51;98738.66;1690199;82;21167;-64
2021/01/27 02:50:37;;;;;;;8.73;4.35;;;;;;;0.48;67.60;98742.17;1692725;83;21181;-60
2021/01/27 02:53:11;;;;;;;8.73;5.10;;;;;;;0.47;67.77;98737.78;1695321;83;21120;-63
2021/01/27 02:55:55;;;;;;;8.53;4.50;;;;;;;0.46;67.80;98742.66;1695137;83;21200;-60
2021/01/27 02:58:31;;;;;;;8.90;5.22;;;;;;;0.46;67.92;98742.66;1693956;83;22285;-59
2021/01/27 03:01:02;;;;;;;10.23;5.53;;;;;;;0.46;68.10;98746.62;1694866;83;21135;-61
2021/01/27 03:03:40;;;;;;;7.93;4.70;;;;;;;0.48;68.17;98746.14;1697436;82;21101;-60
2021/01/27 03:06:12;;;;;;;8.90;4.90;;;;;;;0.49;68.26;98749.21;1695208;82;21143;-62
2021/01/27 03:08:54;;;;;;;10.77;5.13;;;;;;;0.50;68.24;98749.63;1666010;83;21224;-64
2021/01/27 03:11:24;;;;;;;7.80;5.70;;;;;;;0.50;68.28;98749.63;1696586;82;21722;-62
2021/01/27 03:13:51;;;;;;;10.40;5.27;;;;;;;0.51;68.34;98747.86;1694822;83;21319;-59
2021/01/27 03:16:39;;;;;;;12.70;5.00;;;;;;;0.51;68.40;98750.02;1691954;82;22458;-61
2021/01/27 03:19:10;;;;;;;8.77;5.27;;;;;;;0.51;68.39;98739.91;1695665;83;21625;-59
2021/01/27 03:21:42;;;;;;;10.37;5.50;;;;;;;0.49;68.53;98733.33;1688277;83;21823;-62
2021/01/27 03:24:21;;;;;;;9.77;4.77;;;;;;;0.51;68.59;98735.95;1667788;84;21452;-61
2021/01/27 03:27:12;;;;;;;13.37;5.43;;;;;;;0.50;68.61;98731.55;1690010;82;21211;-60
2021/01/27 03:29:54;;;;;;;9.90;5.23;;;;;;;0.48;68.73;98727.61;1692943;82;21650;-59
2021/01/27 03:32:39;;;;;;;10.83;5.43;;;;;;;0.47;68.84;98717.92;1705768;82;21254;-59
2021/01/27 03:35:10;;;;;;;;;;;;;;;0.48;68.92;98721.44;1713151;82;21183;-60
2021/01/27 03:37:51;;;;;;;7.97;3.57;;;;;;;0.47;69.02;98719.70;1709765;83;22291;-59
2021/01/27 03:40:19;;;;;;;9.13;5.17;;;;;;;0.47;69.08;98712.63;1706786;83;21496;-58
2021/01/27 03:43:01;;;;;;;11.63;5.30;;;;;;;0.47;69.11;98719.25;1704408;83;21202;-62
2021/01/27 03:45:29;;;;;;;8.53;5.20;;;;;;;0.49;69.12;98717.89;1704790;83;21571;-58
2021/01/27 03:48:10;;;;;;;11.00;4.97;;;;;;;0.49;69.13;98721.86;1708833;83;21199;-57
2021/01/27 03:50:38;;;;;;;8.80;4.80;;;;;;;0.50;69.19;98729.77;1704668;83;21460;-58
2021/01/27 03:53:10;;;;;;;7.00;4.43;;;;;;;0.50;69.22;98727.58;1705994;83;21243;-58
2021/01/27 03:56:00;;;;;;;9.30;5.00;;;;;;;0.49;69.31;98729.35;1677594;83;21642;-62
2021/01/27 03:58:40;;;;;;;8.20;5.23;;;;;;;0.48;69.41;98722.31;1706008;83;21902;-60
2021/01/27 04:01:10;;;;;;;10.57;4.93;;;;;;;0.47;69.58;98727.64;1704844;82;21223;-58
2021/01/27 04:03:38;;;;;;;11.10;5.47;;;;;;;0.45;69.73;98728.99;1707335;82;21853;-60
2021/01/27 04:06:06;;;;;;;13.90;6.87;;;;;;;0.45;69.82;98726.80;1704043;83;21488;-59
2021/01/27 04:08:34;;;;;;;11.30;5.77;;;;;;;0.43;69.88;98722.86;1704092;83;21187;-59
2021/01/27 04:11:01;;;;;;;12.67;6.37;;;;;;;0.43;69.94;98732.12;1709916;82;21135;-57
2021/01/27 04:13:29;;;;;;;12.23;6.83;;;;;;;0.44;69.95;98736.52;1707254;83;21123;-59
2021/01/27 04:15:57;;;;;;;15.77;8.67;;;;;;;0.44;69.97;98730.34;1708744;83;21665;-62
2021/01/27 04:18:25;;;;;;;15.17;8.03;;;;;;;0.44;69.96;98729.89;1707121;83;21156;-58
2021/01/27 04:20:53;;;;;;;11.37;7.00;;;;;;;0.44;70.00;98729.03;1708232;82;21143;-59
2021/01/27 04:23:20;;;;;;;14.03;8.50;;;;;;;0.43;70.05;98731.25;1710401;83;21127;-58
2021/01/27 04:25:47;;;;;;;14.43;7.80;;;;;;;0.44;70.13;98735.20;1708240;83;22206;-62
2021/01/27 04:28:14;;;;;;;15.13;7.87;;;;;;;0.44;70.16;98734.32;1707183;83;21397;-58
2021/01/27 04:30:42;;;;;;;12.33;6.93;;;;;;;0.45;70.22;98737.39;1703563;82;21661;-60
2021/01/27 04:33:10;;;;;;;12.17;6.90;;;;;;;0.45;70.30;98740.91;1709709;83;21108;-59
2021/01/27 04:35:38;;;;;;;12.57;7.37;;;;;;;0.45;70.38;98750.17;1705927;82;21162;-58
2021/01/27 04:38:05;;;;;;;14.17;7.57;;;;;;;0.45;70.46;98746.66;1710938;83;21111;-59
2021/01/27 04:40:43;;;;;;;12.47;6.87;;;;;;;0.44;70.52;98745.78;1706469;83;21350;-59
2021/01/27 04:43:23;;;;;;;10.80;5.97;;;;;;;0.46;70.65;98746.62;1705250;82;21531;-63
2021/01/27 04:46:14;;;;;;;9.93;6.03;;;;;;;0.46;70.70;98740.01;1703457;83;21252;-59
2021/01/27 04:49:08;;;;;;;11.30;6.63;;;;;;;0.46;70.68;98745.75;1705258;82;21100;-60
2021/01/27 04:51:50;;;;;;;11.57;6.27;;;;;;;0.43;70.70;98740.06;1707351;83;21135;-63
2021/01/27 04:54:54;;;;;;;11.07;6.47;;;;;;;0.43;70.73;98740.06;1707998;82;21202;-59
2021/01/27 04:57:27;;;;;;;10.93;4.80;;;;;;;0.42;70.78;98741.00;1707524;83;21601;-62
2021/01/27 05:00:18;;;;;;;9.13;5.50;;;;;;;0.41;70.81;98745.00;1642666;85;21235;-63
2021/01/27 05:03:34;;;;;;;9.73;5.27;;;;;;;0.40;70.84;98745.91;1705762;83;21195;-59
2021/01/27 05:06:04;;;;;;;11.73;6.33;;;;;;;0.38;70.92;98747.27;1705775;83;21222;-58
2021/01/27 05:08:36;;;;;;;8.60;5.57;;;;;;;0.38;71.03;98755.20;1703354;82;23110;-60
2021/01/27 05:11:06;;;;;;;11.10;5.83;;;;;;;0.38;71.08;98742.84;1707657;83;21151;-61
2021/01/27 05:13:39;;;;;;;12.03;6.90;;;;;;;0.39;71.16;98747.69;1659411;83;21143;-59
2021/01/27 05:16:11;;;;;;;10.83;7.20;;;;;;;0.38;71.14;98750.78;1709960;83;21146;-60
2021/01/27 05:18:39;;;;;;;11.60;6.40;;;;;;;0.38;71.14;98753.88;1704183;83;21213;-60
2021/01/27 05:21:15;;;;;;;10.27;6.97;;;;;;;0.36;71.17;98748.61;1706453;83;21287;-60
2021/01/27 05:23:42;;;;;;;11.70;7.53;;;;;;;0.36;71.25;98759.20;1679302;83;21202;-60
2021/01/27 05:26:11;;;;;;;15.33;8.17;;;;;;;0.38;71.28;98760.50;1701496;83;21207;-60
2021/01/27 05:28:41;;;;;;;9.77;6.90;;;;;;;0.37;71.30;98768.02;1705992;82;21226;-59
2021/01/27 05:31:09;;;;;;;14.10;7.37;;;;;;;0.37;71.29;98769.34;1676741;82;21148;-61
2021/01/27 05:33:49;;;;;;;10.80;7.23;;;;;;;0.36;71.33;98765.82;1702635;82;21221;-63
2021/01/27 05:36:22;;;;;;;10.37;6.97;;;;;;;0.36;71.41;98769.80;1701133;83;21223;-60
2021/01/27 05:38:49;;;;;;;9.33;6.23;;;;;;;0.36;71.47;98769.80;1701446;82;21131;-60
2021/01/27 05:41:28;;;;;;;7.93;4.57;;;;;;;0.35;71.51;98772.02;1700726;83;21282;-59
2021/01/27 05:45:50;;;;;;;11.20;6.13;;;;;;;0.39;71.66;98780.77;1790543;77;27274;-60
2021/01/27 05:48:33;;;;;;;8.43;5.10;;;;;;;0.35;71.72;98781.73;1761440;78;21680;-60
2021/01/27 05:51:11;;;;;;;10.67;6.13;;;;;;;0.34;71.79;98775.56;1758772;78;22535;-58
2021/01/27 05:53:39;;;;;;;9.93;6.00;;;;;;;0.36;71.83;98775.09;1759535;78;21206;-58
2021/01/27 05:56:20;;;;;;;9.30;5.83;;;;;;;0.37;71.79;98790.06;1762768;78;20980;-62
2021/01/27 05:59:04;;;;;;;11.33;7.37;;;;;;;0.37;71.82;98790.06;1763665;78;21103;-58
2021/01/27 06:01:39;;;;;;;9.85;6.60;;;;;;;0.37;71.83;98794.04;1762545;78;21447;-58
2021/01/27 06:04:15;;;;;;;12.40;7.90;;;;;;;0.37;71.85;98789.19;1763740;78;21248;-57
2021/01/27 06:06:52;;;;;;;10.80;6.93;;;;;;;0.37;71.90;98792.72;1764452;78;21167;-59
2021/01/27 06:09:45;;;;;;;8.80;5.70;;;;;;;0.37;71.84;98800.66;1762617;78;21159;-60
2021/01/27 06:12:25;;;;;;;10.23;6.60;;;;;;;0.35;71.93;98800.27;1763095;78;21238;-59
2021/01/27 06:15:10;;;;;;;9.17;5.97;;;;;;;0.35;72.05;98802.46;1761289;78;21715;-60
2021/01/27 06:17:48;;;;;;;10.60;6.50;;;;;;;0.35;72.12;98788.35;1766684;78;21589;-59
2021/01/27 06:20:32;;;;;;;8.63;5.37;;;;;;;0.36;72.24;98804.66;1760786;78;21071;-61
2021/01/27 06:23:30;;;;;;;12.07;5.40;;;;;;;0.34;72.25;98796.74;1761594;78;21111;-57
2021/01/27 06:26:11;;;;;;;9.23;6.23;;;;;;;0.33;72.26;98803.42;1748588;78;21199;-59
2021/01/27 06:29:16;;;;;;;11.60;6.67;;;;;;;0.31;72.35;98800.80;1725943;81;21187;-59
2021/01/27 06:32:40;;;;;;;10.40;6.80;;;;;;;0.32;72.43;98799.03;1705725;81;21240;-58
2021/01/27 06:35:36;;;;;;;15.37;6.57;;;;;;;0.34;72.52;98798.55;1706028;81;21650;-61
2021/01/27 06:38:40;;;;;;;12.65;7.17;;;;;;;0.34;72.53;98791.45;1716922;81;21198;-59
2021/01/27 06:41:39;;;;;;;14.20;8.17;;;;;;;0.37;72.49;98798.46;1710637;81;21167;-62
2021/01/27 06:44:27;;;;;;;16.03;9.10;;;;;;;0.40;72.50;98802.83;1717074;81;21307;-59
2021/01/27 06:47:35;;;;;;;20.43;10.53;;;;;;;0.42;72.51;98804.55;1738857;80;22171;-58
2021/01/27 06:50:26;;;;;;;22.30;11.70;;;;;;;0.45;72.56;98803.58;1740003;80;21082;-58
2021/01/27 06:53:11;;;;;;;17.73;10.70;;;;;;;0.46;72.56;98796.93;1739047;80;22195;-60
2021/01/27 06:55:59;;;;;;;26.57;13.15;;;;;;;0.46;72.50;98794.28;1736012;80;21179;-60
2021/01/27 06:58:37;;;;;;;26.33;13.40;;;;;;;0.48;72.54;98792.93;1711934;80;21188;-61
2021/01/27 07:01:28;;;;;;;25.30;12.77;;;;;;;0.50;72.56;98792.00;1735283;81;21277;-61
2021/01/27 07:04:43;;;;;;;23.93;14.23;;;;;;;0.50;72.60;98790.67;1739784;80;21686;-61
2021/01/27 07:07:34;;;;;;;29.43;14.43;;;;;;;0.52;72.64;98790.16;1736692;80;21156;-61
2021/01/27 07:10:22;;;;;;;32.23;16.73;;;;;;;0.55;72.70;98790.55;1734713;81;21195;-61
2021/01/27 07:12:54;;;;;;;38.87;18.30;;;;;;;0.58;72.72;98785.20;1737428;81;21192;-61
2021/01/27 07:15:36;;;;;;;40.40;19.83;;;;;;;0.61;72.74;98790.40;1736183;80;21827;-61
2021/01/27 07:18:41;;;;;;;31.20;17.43;;;;;;;0.62;72.73;98782.42;1735078;81;21214;-61
2021/01/27 07:21:23;;;;;;;30.02;16.32;;;;;;;0.65;72.73;98787.66;1737686;81;21117;-61
2021/01/27 07:24:17;;;;;;;23.07;13.10;;;;;;;0.70;72.70;98790.18;1738192;80;21125;-61
2021/01/27 07:26:54;;;;;;;22.70;11.37;;;;;;;0.71;72.67;98797.22;1737154;81;21507;-62
2021/01/27 07:29:52;;;;;;;23.73;12.87;;;;;;;0.74;72.55;98799.81;1739719;80;22275;-62
2021/01/27 07:32:29;;;;;;;21.00;12.27;;;;;;;0.75;72.57;98795.81;1735926;81;21180;-62
2021/01/27 07:35:10;;;;;;;21.17;11.93;;;;;;;0.75;72.59;98793.16;1738768;81;21448;-62
2021/01/27 07:37:48;;;;;;;18.10;11.43;;;;;;;0.78;72.51;98789.54;1738251;81;21586;-61
2021/01/27 07:40:50;;;;;;;23.23;12.87;;;;;;;0.79;72.52;98790.41;1736921;80;21527;-62
2021/01/27 07:43:56;;;;;;;20.43;11.77;;;;;;;0.80;72.59;98791.70;1735042;80;22238;-62
2021/01/27 07:46:37;;;;;;;16.45;10.45;;;;;;;0.84;72.58;98798.69;1737486;80;21491;-62
2021/01/27 07:49:05;;;;;;;20.07;11.30;;;;;;;0.88;72.46;98788.87;1722604;81;21112;-61
2021/01/27 07:51:51;;;;;;;14.20;9.70;;;;;;;0.90;72.33;98788.38;1723384;81;21536;-62
2021/01/27 07:54:42;;;;;;;19.50;10.43;;;;;;;0.91;72.25;98776.88;1737652;81;21085;-62
2021/01/27 07:57:36;;;;;;;18.37;10.27;;;;;;;0.93;72.27;98780.37;1737251;81;22127;-63
2021/01/27 08:00:14;;;;;;;18.83;10.83;;;;;;;0.94;72.21;98780.30;1733635;80;21168;-62
2021/01/27 08:03:19;;;;;;;18.63;10.67;;;;;;;0.95;72.15;98786.02;1735672;81;21220;-63
2021/01/27 08:05:46;;;;;;;13.40;9.13;;;;;;;0.97;72.09;98789.52;1717246;80;21787;-63
2021/01/27 08:08:17;;;;;;;18.87;10.67;;;;;;;0.96;72.08;98789.09;1716876;81;21692;-64
2021/01/27 08:10:44;;;;;;;16.97;10.30;;;;;;;0.95;72.09;98786.48;1728120;81;21298;-62
2021/01/27 08:13:32;;;;;;;15.33;9.43;;;;;;;0.98;72.11;98785.96;1734429;81;21475;-63
2021/01/27 08:16:17;;;;;;;18.07;10.43;;;;;;;1.02;72.04;98780.14;1736276;81;21128;-64
2021/01/27 08:19:17;;;;;;;14.67;10.73;;;;;;;1.05;72.01;98787.54;1735900;81;21140;-63
2021/01/27 08:21:52;;;;;;;21.07;11.80;;;;;;;1.09;71.81;98790.55;1737504;80;21176;-64
2021/01/27 08:24:41;;;;;;;19.10;10.20;;;;;;;1.11;71.72;98788.70;1736925;80;21224;-63
2021/01/27 08:27:26;;;;;;;19.07;11.97;;;;;;;1.12;71.58;98785.59;1736262;81;21204;-66
2021/01/27 08:30:05;;;;;;;18.57;11.30;;;;;;;1.10;71.44;98793.61;1731887;80;21200;-63
2021/01/27 08:32:42;;;;;;;18.53;11.07;;;;;;;1.07;71.40;98796.78;1736488;81;21232;-64
2021/01/27 08:35:11;;;;;;;18.03;10.50;;;;;;;1.05;71.41;98787.54;1739892;80;21645;-63
2021/01/27 08:37:40;;;;;;;19.27;12.73;;;;;;;1.02;71.35;98788.93;1736562;81;21447;-64
2021/01/27 08:40:28;;;;;;;18.63;11.57;;;;;;;1.01;71.31;98791.64;1733855;80;22528;-64
2021/01/27 08:42:57;;;;;;;23.23;12.80;;;;;;;0.97;71.40;98784.66;1734744;81;21364;-63
2021/01/27 08:45:30;;;;;;;19.30;12.17;;;;;;;0.97;71.54;98786.86;1717330;81;21199;-63
2021/01/27 08:48:00;;;;;;;17.27;11.73;;;;;;;0.98;71.50;98787.28;1679805;84;21235;-64
2021/01/27 08:50:49;;;;;;;23.77;13.27;;;;;;;0.98;71.55;98787.73;1737429;81;22451;-64
2021/01/27 08:53:19;;;;;;;21.73;11.37;;;;;;;1.02;71.69;98792.06;1739173;81;21196;-65
2021/01/27 08:55:58;;;;;;;18.63;11.80;;;;;;;1.03;71.68;98789.35;1739142;81;21188;-63
2021/01/27 08:58:38;;;;;;;18.40;11.20;;;;;;;1.08;71.63;98793.22;1738115;81;22313;-64
2021/01/27 09:01:24;;;;;;;17.17;10.40;;;;;;;1.11;71.48;98785.17;1738092;81;21599;-63
2021/01/27 09:03:54;;;;;;;18.63;10.80;;;;;;;1.13;71.41;98787.34;1735911;81;21498;-61
2021/01/27 09:06:42;;;;;;;17.63;11.13;;;;;;;1.17;71.32;98784.17;1721980;81;21203;-63
2021/01/27 09:09:23;;;;;;;18.40;11.20;;;;;;;1.18;70.81;98784.59;1737745;81;21601;-62
2021/01/27 09:12:01;;;;;;;19.20;10.63;;;;;;;1.13;70.79;98780.26;1741887;81;21123;-61
2021/01/27 09:14:29;;;;;;;19.37;11.17;;;;;;;1.11;70.74;98782.52;1740504;81;21100;-61
2021/01/27 09:16:57;;;;;;;16.10;10.50;;;;;;;1.11;70.75;98780.75;1736674;81;23623;-61
2021/01/27 09:19:26;;;;;;;19.17;11.97;;;;;;;1.12;70.66;98785.14;1738654;81;21681;-60
2021/01/27 09:22:09;;;;;;;16.67;9.97;;;;;;;1.15;70.66;98781.55;1738858;81;22296;-60
2021/01/27 09:24:46;;;;;;;16.90;10.20;;;;;;;1.17;70.60;98778.41;1738497;81;21236;-62
2021/01/27 09:27:19;;;;;;;14.93;9.77;;;;;;;1.17;70.12;98780.19;1740703;81;21495;-61
2021/01/27 09:30:10;;;;;;;20.83;11.50;;;;;;;1.16;70.12;98782.42;1735477;81;22060;-60
2021/01/27 09:32:39;;;;;;;16.13;9.60;;;;;;;1.15;70.01;98778.90;1738668;81;21180;-61
2021/01/27 09:35:22;;;;;;;13.40;7.77;;;;;;;1.11;69.58;98783.85;1738615;81;21236;-61
2021/01/27 09:38:07;;;;;;;13.87;7.80;;;;;;;1.08;69.72;98782.17;1737613;81;21187;-61
2021/01/27 09:40:40;;;;;;;13.32;7.67;;;;;;;1.11;69.46;98777.22;1738032;81;21171;-62
2021/01/27 09:43:10;;;;;;;11.77;7.37;;;;;;;1.12;69.23;98777.64;1741948;81;21201;-61
2021/01/27 09:45:40;;;;;;;16.07;8.17;;;;;;;1.09;68.95;98781.72;1677237;83;21178;-60
2021/01/27 09:48:08;;;;;;;15.37;8.80;;;;;;;1.05;68.94;98775.61;1686487;84;21240;-60
2021/01/27 09:50:38;;;;;;;12.97;8.13;;;;;;;1.05;68.75;98766.34;1661632;84;21563;-60
2021/01/27 09:53:07;;;;;;;16.40;7.07;;;;;;;1.05;68.90;98768.12;1727066;82;21264;-62
2021/01/27 09:55:34;;;;;;;10.33;6.63;;;;;;;1.08;68.86;98764.95;1728751;81;21257;-63
2021/01/27 09:58:05;;;;;;;15.60;7.83;;;;;;;1.11;68.57;98761.33;1730976;82;21570;-61
2021/01/27 10:00:34;;;;;;;27.50;12.23;;;;;;;1.13;68.57;98754.20;1694196;84;21109;-61
2021/01/27 10:03:24;;;;;;;18.03;8.43;;;;;;;1.19;68.55;98762.02;1728155;82;21420;-62
2021/01/27 10:05:52;;;;;;;13.80;8.40;;;;;;;1.24;68.38;98760.11;1721149;82;21106;-62
2021/01/27 10:08:40;;;;;;;16.23;9.47;;;;;;;1.27;68.00;98754.73;1729704;82;21685;-61
2021/01/27 10:11:11;;;;;;;11.23;7.00;;;;;;;1.26;67.92;98746.36;1720320;82;21147;-61
2021/01/27 10:13:40;;;;;;;14.73;7.87;;;;;;;1.27;67.59;98738.83;1723339;82;22021;-61
2021/01/27 10:16:11;;;;;;;9.47;5.90;;;;;;;1.28;67.67;98736.56;1705480;82;21457;-60
2021/01/27 10:18:42;;;;;;;9.90;6.23;;;;;;;1.31;67.16;98739.14;1727923;82;21108;-61
2021/01/27 10:21:12;;;;;;;14.60;7.10;;;;;;;1.28;66.23;98741.87;1663451;84;21590;-61
2021/01/27 10:23:46;;;;;;;13.57;7.80;;;;;;;1.26;66.29;98748.14;1667352;83;21153;-61
2021/01/27 10:26:37;;;;;;;9.88;4.90;;;;;;;1.27;66.36;98757.39;1730925;82;21155;-63
2021/01/27 10:29:22;;;;;;;7.40;4.37;;;;;;;1.29;66.42;98758.19;1730584;82;21563;-61
2021/01/27 10:31:54;;;;;;;6.97;4.20;;;;;;;1.30;65.93;98750.66;1728649;81;21118;-61
2021/01/27 10:34:42;;;;;;;8.37;4.03;;;;;;;1.33;65.79;98752.36;1728071;82;22103;-61
2021/01/27 10:37:33;;;;;;;6.60;4.10;;;;;;;1.32;65.47;98741.34;1726355;82;21467;-60
2021/01/27 10:40:30;;;;;;;11.83;4.23;;;;;;;1.33;65.25;98747.06;1729578;82;21474;-60
2021/01/27 10:42:59;;;;;;;7.90;4.03;;;;;;;1.36;65.36;98749.16;1726408;82;21092;-60
2021/01/27 10:45:42;;;;;;;5.37;3.33;;;;;;;1.38;64.82;98738.05;1724046;81;21199;-60
2021/01/27 10:48:22;;;;;;;8.63;4.50;;;;;;;1.39;64.78;98725.22;1723505;80;21923;-60
2021/01/27 10:50:56;;;;;;;26.90;10.83;;;;;;;1.39;64.44;98726.55;1720579;81;21207;-61
2021/01/27 10:53:25;;;;;;;45.47;18.60;;;;;;;1.34;64.49;98724.94;1720444;81;21251;-61
2021/01/27 10:55:54;;;;;;;19.27;8.77;;;;;;;1.32;64.22;98726.76;1722992;81;21224;-61
2021/01/27 10:58:21;;;;;;;15.27;7.27;;;;;;;1.27;64.09;98723.38;1718899;80;21116;-61
2021/01/27 11:00:49;;;;;;;17.20;9.03;;;;;;;1.19;63.96;98714.77;1718534;81;21607;-60
2021/01/27 11:03:17;;;;;;;8.67;4.90;;;;;;;1.17;64.30;98715.25;1719835;80;21735;-59
2021/01/27 11:05:47;;;;;;;8.33;4.33;;;;;;;1.18;64.46;98713.89;1665995;85;21642;-60
2021/01/27 11:08:22;;;;;;;9.10;4.30;;;;;;;1.23;64.65;98717.73;1655510;83;21224;-60
2021/01/27 11:11:04;;;;;;;8.47;4.33;;;;;;;1.26;64.65;98709.70;1665562;84;21204;-60
2021/01/27 11:13:34;;;;;;;5.37;3.60;;;;;;;1.28;64.38;98714.03;1741740;80;21432;-60
2021/01/27 11:16:03;;;;;;;5.23;3.40;;;;;;;1.31;64.55;98714.41;1738291;81;21201;-60
2021/01/27 11:18:30;;;;;;;5.80;3.30;;;;;;;1.34;64.72;98713.88;1739706;81;21513;-60
2021/01/27 11:20:58;;;;;;;6.00;3.07;;;;;;;1.35;64.13;98706.34;1740135;81;21192;-59
2021/01/27 11:23:25;;;;;;;5.33;1.90;;;;;;;1.32;63.19;98705.55;1736628;81;21166;-60
2021/01/27 11:25:53;;;;;;;4.90;2.80;;;;;;;1.28;63.16;98712.70;1737816;81;21287;-61
2021/01/27 11:28:23;;;;;;;5.47;2.63;;;;;;;1.26;63.10;98713.23;1742467;81;22017;-61
2021/01/27 11:30:51;;;;;;;3.90;2.40;;;;;;;1.26;63.11;98715.88;1744229;81;21209;-59
2021/01/27 11:33:20;;;;;;;7.17;3.90;;;;;;;1.22;63.11;98712.87;1740281;81;21128;-60
2021/01/27 11:35:48;;;;;;;6.70;3.43;;;;;;;1.19;63.70;98714.31;1743233;81;21344;-59
2021/01/27 11:38:15;;;;;;;5.57;2.60;;;;;;;1.20;63.45;98713.83;1738840;80;21221;-59
2021/01/27 11:40:43;;;;;;;4.57;3.33;;;;;;;1.18;63.26;98717.87;1743711;81;21923;-60
2021/01/27 11:43:10;;;;;;;4.43;2.87;;;;;;;1.17;63.24;98704.20;1765582;79;22378;-59
2021/01/27 11:45:39;;;;;;;7.47;3.60;;;;;;;1.19;63.11;98704.16;1721703;81;21172;-60
2021/01/27 11:48:08;;;;;;;5.30;2.20;;;;;;;1.20;63.16;98704.55;1717613;81;21257;-60
2021/01/27 11:50:35;;;;;;;4.27;2.10;;;;;;;1.20;62.97;98702.77;1699284;82;21588;-60
2021/01/27 11:53:03;;;;;;;5.83;3.10;;;;;;;1.21;62.82;98702.31;1728969;81;21589;-59
2021/01/27 11:55:30;;;;;;;6.03;3.27;;;;;;;1.18;62.95;98700.64;1730400;81;21230;-60
2021/01/27 11:57:58;;;;;;;5.27;2.97;;;;;;;1.16;62.99;98701.12;1731679;81;21203;-59
2021/01/27 12:00:25;;;;;;;5.10;2.80;;;;;;;1.15;62.94;98699.39;1730368;81;21190;-60
2021/01/27 12:02:53;;;;;;;5.40;2.70;;;;;;;1.18;62.89;98699.31;1733141;81;21809;-59
2021/01/27 12:05:20;;;;;;;4.73;2.87;;;;;;;1.20;63.07;98699.24;1731832;81;21166;-59
2021/01/27 12:07:47;;;;;;;4.87;2.70;;;;;;;1.23;62.95;98701.83;1737348;81;21769;-59
2021/01/27 12:10:15;;;;;;;4.00;2.03;;;;;;;1.24;62.71;98693.83;1744832;80;21090;-59
2021/01/27 12:12:43;;;;;;;5.60;1.80;;;;;;;1.22;62.48;98700.08;1788615;78;21069;-58
2021/01/27 12:15:11;;;;;;;24.40;7.93;;;;;;;1.21;62.34;98691.26;1789042;78;21209;-58
2021/01/27 12:17:42;;;;;;;17.00;7.20;;;;;;;1.20;62.37;98693.48;1790828;78;21555;-59
2021/01/27 12:20:11;;;;;;;7.00;2.57;;;;;;;1.19;62.38;98689.58;1794076;78;21163;-59
2021/01/27 12:22:39;;;;;;;15.90;6.30;;;;;;;1.16;62.61;98686.55;1793536;78;21204;-59
2021/01/27 12:25:07;;;;;;;7.27;2.70;;;;;;;1.18;62.46;98690.03;1786523;78;21182;-60